sensor_id;sensor_type;location;lat;lon;timestamp;temperature;humidity
51661;DHT22;37741;49.748;8.490;2024-02-26T00:02:02;7.60;83.10
51661;DHT22;37741;49.748;8.490;2024-02-26T00:04:28;7.60;83.00
51661;DHT22;37741;49.748;8.490;2024-02-26T00:06:53;7.60;83.60
51661;DHT22;37741;49.748;8.490;2024-02-26T00:09:20;7.60;83.80
51661;DHT22;37741;49.748;8.490;2024-02-26T00:11:45;7.60;84.00
51661;DHT22;37741;49.748;8.490;2024-02-26T00:14:11;7.60;83.60
51661;DHT22;37741;49.748;8.490;2024-02-26T00:16:40;7.50;83.30
51661;DHT22;37741;49.748;8.490;2024-02-26T00:19:06;7.60;83.60
51661;DHT22;37741;49.748;8.490;2024-02-26T00:21:31;7.50;83.60
51661;DHT22;37741;49.748;8.490;2024-02-26T00:23:57;7.60;83.70
51661;DHT22;37741;49.748;8.490;2024-02-26T00:26:23;7.50;83.50
51661;DHT22;37741;49.748;8.490;2024-02-26T00:28:48;7.60;83.80
51661;DHT22;37741;49.748;8.490;2024-02-26T00:31:14;7.60;83.60
51661;DHT22;37741;49.748;8.490;2024-02-26T00:33:40;7.50;83.60
51661;DHT22;37741;49.748;8.490;2024-02-26T00:36:06;7.60;83.90
51661;DHT22;37741;49.748;8.490;2024-02-26T00:38:31;7.50;83.60
51661;DHT22;37741;49.748;8.490;2024-02-26T00:40:57;7.60;83.60
51661;DHT22;37741;49.748;8.490;2024-02-26T00:43:23;7.60;83.80
51661;DHT22;37741;49.748;8.490;2024-02-26T00:45:48;7.50;83.60
51661;DHT22;37741;49.748;8.490;2024-02-26T00:48:14;7.50;84.00
51661;DHT22;37741;49.748;8.490;2024-02-26T00:50:40;7.50;84.20
51661;DHT22;37741;49.748;8.490;2024-02-26T00:53:06;7.50;84.10
51661;DHT22;37741;49.748;8.490;2024-02-26T00:55:31;7.50;84.30
51661;DHT22;37741;49.748;8.490;2024-02-26T00:57:57;7.50;83.80
51661;DHT22;37741;49.748;8.490;2024-02-26T01:00:22;7.50;83.90
51661;DHT22;37741;49.748;8.490;2024-02-26T01:02:48;7.50;83.90
51661;DHT22;37741;49.748;8.490;2024-02-26T01:05:14;7.50;84.20
51661;DHT22;37741;49.748;8.490;2024-02-26T01:07:41;7.50;84.30
51661;DHT22;37741;49.748;8.490;2024-02-26T01:10:07;7.50;83.90
51661;DHT22;37741;49.748;8.490;2024-02-26T01:12:34;7.40;84.20
51661;DHT22;37741;49.748;8.490;2024-02-26T01:15:03;7.50;84.20
51661;DHT22;37741;49.748;8.490;2024-02-26T01:17:32;7.50;84.30
51661;DHT22;37741;49.748;8.490;2024-02-26T01:19:58;7.50;84.30
51661;DHT22;37741;49.748;8.490;2024-02-26T01:22:27;7.50;84.30
51661;DHT22;37741;49.748;8.490;2024-02-26T01:24:52;7.50;83.90
51661;DHT22;37741;49.748;8.490;2024-02-26T01:27:18;7.40;83.90
51661;DHT22;37741;49.748;8.490;2024-02-26T01:29:45;7.50;84.30
51661;DHT22;37741;49.748;8.490;2024-02-26T01:32:10;7.50;84.00
51661;DHT22;37741;49.748;8.490;2024-02-26T01:34:36;7.50;84.20
51661;DHT22;37741;49.748;8.490;2024-02-26T01:37:02;7.50;84.10
51661;DHT22;37741;49.748;8.490;2024-02-26T01:39:28;7.40;84.50
51661;DHT22;37741;49.748;8.490;2024-02-26T01:41:55;7.50;84.30
51661;DHT22;37741;49.748;8.490;2024-02-26T01:44:21;7.50;84.60
51661;DHT22;37741;49.748;8.490;2024-02-26T01:46:47;7.50;84.60
51661;DHT22;37741;49.748;8.490;2024-02-26T01:49:14;7.50;84.70
51661;DHT22;37741;49.748;8.490;2024-02-26T01:51:41;7.40;84.50
51661;DHT22;37741;49.748;8.490;2024-02-26T01:54:11;7.40;84.50
51661;DHT22;37741;49.748;8.490;2024-02-26T01:56:37;7.40;84.60
51661;DHT22;37741;49.748;8.490;2024-02-26T01:59:05;7.50;84.80
51661;DHT22;37741;49.748;8.490;2024-02-26T02:01:32;7.40;84.60
51661;DHT22;37741;49.748;8.490;2024-02-26T02:03:59;7.50;84.80
51661;DHT22;37741;49.748;8.490;2024-02-26T02:06:25;7.40;84.80
51661;DHT22;37741;49.748;8.490;2024-02-26T02:08:52;7.40;84.80
51661;DHT22;37741;49.748;8.490;2024-02-26T02:11:19;7.40;84.80
51661;DHT22;37741;49.748;8.490;2024-02-26T02:13:45;7.50;84.90
51661;DHT22;37741;49.748;8.490;2024-02-26T02:16:11;7.40;84.90
51661;DHT22;37741;49.748;8.490;2024-02-26T02:18:39;7.50;84.90
51661;DHT22;37741;49.748;8.490;2024-02-26T02:21:05;7.40;84.90
51661;DHT22;37741;49.748;8.490;2024-02-26T02:23:31;7.40;84.90
51661;DHT22;37741;49.748;8.490;2024-02-26T02:25:57;7.40;84.90
51661;DHT22;37741;49.748;8.490;2024-02-26T02:28:26;7.40;85.00
51661;DHT22;37741;49.748;8.490;2024-02-26T02:30:52;7.40;85.00
51661;DHT22;37741;49.748;8.490;2024-02-26T02:33:19;7.40;85.00
51661;DHT22;37741;49.748;8.490;2024-02-26T02:35:45;7.40;85.00
51661;DHT22;37741;49.748;8.490;2024-02-26T02:38:11;7.40;85.10
51661;DHT22;37741;49.748;8.490;2024-02-26T02:40:36;7.40;85.10
51661;DHT22;37741;49.748;8.490;2024-02-26T02:43:02;7.40;85.10
51661;DHT22;37741;49.748;8.490;2024-02-26T02:45:28;7.40;85.10
51661;DHT22;37741;49.748;8.490;2024-02-26T02:47:54;7.40;85.10
51661;DHT22;37741;49.748;8.490;2024-02-26T02:50:19;7.40;85.10
51661;DHT22;37741;49.748;8.490;2024-02-26T02:52:45;7.40;85.20
51661;DHT22;37741;49.748;8.490;2024-02-26T02:55:11;7.40;85.20
51661;DHT22;37741;49.748;8.490;2024-02-26T02:57:37;7.40;85.20
51661;DHT22;37741;49.748;8.490;2024-02-26T03:00:09;7.40;85.20
51661;DHT22;37741;49.748;8.490;2024-02-26T03:02:35;7.40;85.30
51661;DHT22;37741;49.748;8.490;2024-02-26T03:05:05;7.30;85.30
51661;DHT22;37741;49.748;8.490;2024-02-26T03:07:31;7.30;85.40
51661;DHT22;37741;49.748;8.490;2024-02-26T03:09:56;7.40;85.50
51661;DHT22;37741;49.748;8.490;2024-02-26T03:12:22;7.30;85.50
51661;DHT22;37741;49.748;8.490;2024-02-26T03:14:48;7.30;85.50
51661;DHT22;37741;49.748;8.490;2024-02-26T03:17:13;7.30;85.50
51661;DHT22;37741;49.748;8.490;2024-02-26T03:19:39;7.40;85.60
51661;DHT22;37741;49.748;8.490;2024-02-26T03:22:05;7.30;85.50
51661;DHT22;37741;49.748;8.490;2024-02-26T03:24:30;7.40;85.60
51661;DHT22;37741;49.748;8.490;2024-02-26T03:26:56;7.30;85.60
51661;DHT22;37741;49.748;8.490;2024-02-26T03:29:22;7.30;85.60
51661;DHT22;37741;49.748;8.490;2024-02-26T03:31:48;7.30;85.60
51661;DHT22;37741;49.748;8.490;2024-02-26T03:34:14;7.30;85.70
51661;DHT22;37741;49.748;8.490;2024-02-26T03:36:40;7.30;85.70
51661;DHT22;37741;49.748;8.490;2024-02-26T03:39:06;7.30;85.70
51661;DHT22;37741;49.748;8.490;2024-02-26T03:41:36;7.30;85.70
51661;DHT22;37741;49.748;8.490;2024-02-26T03:44:02;7.30;85.70
51661;DHT22;37741;49.748;8.490;2024-02-26T03:46:27;7.30;85.70
51661;DHT22;37741;49.748;8.490;2024-02-26T03:48:53;7.30;85.80
51661;DHT22;37741;49.748;8.490;2024-02-26T03:51:19;7.30;85.80
51661;DHT22;37741;49.748;8.490;2024-02-26T03:53:45;7.30;86.00
51661;DHT22;37741;49.748;8.490;2024-02-26T03:56:13;7.30;86.00
51661;DHT22;37741;49.748;8.490;2024-02-26T03:58:42;7.30;86.00
51661;DHT22;37741;49.748;8.490;2024-02-26T04:01:08;7.30;85.90
51661;DHT22;37741;49.748;8.490;2024-02-26T04:03:34;7.30;86.00
51661;DHT22;37741;49.748;8.490;2024-02-26T04:06:00;7.30;86.00
51661;DHT22;37741;49.748;8.490;2024-02-26T04:08:25;7.30;86.10
51661;DHT22;37741;49.748;8.490;2024-02-26T04:10:51;7.30;86.10
51661;DHT22;37741;49.748;8.490;2024-02-26T04:13:17;7.20;86.10
51661;DHT22;37741;49.748;8.490;2024-02-26T04:15:46;7.20;86.00
51661;DHT22;37741;49.748;8.490;2024-02-26T04:18:12;7.20;86.10
51661;DHT22;37741;49.748;8.490;2024-02-26T04:20:38;7.20;86.10
51661;DHT22;37741;49.748;8.490;2024-02-26T04:23:04;7.20;86.10
51661;DHT22;37741;49.748;8.490;2024-02-26T04:25:29;7.20;86.20
51661;DHT22;37741;49.748;8.490;2024-02-26T04:27:55;7.20;86.20
51661;DHT22;37741;49.748;8.490;2024-02-26T04:30:21;7.20;86.20
51661;DHT22;37741;49.748;8.490;2024-02-26T04:32:46;7.20;86.20
51661;DHT22;37741;49.748;8.490;2024-02-26T04:35:12;7.20;86.30
51661;DHT22;37741;49.748;8.490;2024-02-26T04:37:38;7.20;86.30
51661;DHT22;37741;49.748;8.490;2024-02-26T04:40:04;7.20;86.30
51661;DHT22;37741;49.748;8.490;2024-02-26T04:42:29;7.20;86.30
51661;DHT22;37741;49.748;8.490;2024-02-26T04:45:01;7.20;86.50
51661;DHT22;37741;49.748;8.490;2024-02-26T04:47:26;7.20;86.40
51661;DHT22;37741;49.748;8.490;2024-02-26T04:49:52;7.20;86.40
51661;DHT22;37741;49.748;8.490;2024-02-26T04:52:21;7.20;86.50
51661;DHT22;37741;49.748;8.490;2024-02-26T04:54:47;7.20;86.50
51661;DHT22;37741;49.748;8.490;2024-02-26T04:57:12;7.10;86.40
51661;DHT22;37741;49.748;8.490;2024-02-26T04:59:38;7.20;86.50
51661;DHT22;37741;49.748;8.490;2024-02-26T05:02:06;7.20;86.60
51661;DHT22;37741;49.748;8.490;2024-02-26T05:04:31;7.20;86.60
51661;DHT22;37741;49.748;8.490;2024-02-26T05:06:57;7.10;86.50
51661;DHT22;37741;49.748;8.490;2024-02-26T05:09:23;7.20;86.70
51661;DHT22;37741;49.748;8.490;2024-02-26T05:11:49;7.20;86.70
51661;DHT22;37741;49.748;8.490;2024-02-26T05:14:20;7.10;86.70
51661;DHT22;37741;49.748;8.490;2024-02-26T05:16:47;7.20;86.80
51661;DHT22;37741;49.748;8.490;2024-02-26T05:19:13;7.10;86.80
51661;DHT22;37741;49.748;8.490;2024-02-26T05:21:38;7.10;86.80
51661;DHT22;37741;49.748;8.490;2024-02-26T05:24:23;7.10;86.90
51661;DHT22;37741;49.748;8.490;2024-02-26T05:26:53;7.10;86.90
51661;DHT22;37741;49.748;8.490;2024-02-26T05:29:21;7.10;87.00
51661;DHT22;37741;49.748;8.490;2024-02-26T05:31:47;7.10;87.00
51661;DHT22;37741;49.748;8.490;2024-02-26T05:34:13;7.10;87.00
51661;DHT22;37741;49.748;8.490;2024-02-26T05:36:38;7.10;87.10
51661;DHT22;37741;49.748;8.490;2024-02-26T05:39:04;7.10;87.00
51661;DHT22;37741;49.748;8.490;2024-02-26T05:41:30;7.10;87.20
51661;DHT22;37741;49.748;8.490;2024-02-26T05:43:56;7.10;87.20
51661;DHT22;37741;49.748;8.490;2024-02-26T05:46:33;7.10;87.20
51661;DHT22;37741;49.748;8.490;2024-02-26T05:49:05;7.00;87.10
51661;DHT22;37741;49.748;8.490;2024-02-26T05:51:34;7.10;87.20
51661;DHT22;37741;49.748;8.490;2024-02-26T05:54:05;7.10;87.30
51661;DHT22;37741;49.748;8.490;2024-02-26T05:56:31;7.00;87.30
51661;DHT22;37741;49.748;8.490;2024-02-26T05:58:59;7.10;87.40
51661;DHT22;37741;49.748;8.490;2024-02-26T06:01:34;7.00;87.40
51661;DHT22;37741;49.748;8.490;2024-02-26T06:04:06;7.00;87.50
51661;DHT22;37741;49.748;8.490;2024-02-26T06:06:58;7.00;87.50
51661;DHT22;37741;49.748;8.490;2024-02-26T06:09:24;7.00;87.50
51661;DHT22;37741;49.748;8.490;2024-02-26T06:12:29;7.00;87.50
51661;DHT22;37741;49.748;8.490;2024-02-26T06:15:14;7.00;87.50
51661;DHT22;37741;49.748;8.490;2024-02-26T06:17:48;7.00;87.50
51661;DHT22;37741;49.748;8.490;2024-02-26T06:20:29;7.00;87.50
51661;DHT22;37741;49.748;8.490;2024-02-26T06:22:55;7.00;87.50
51661;DHT22;37741;49.748;8.490;2024-02-26T06:25:21;7.00;87.50
51661;DHT22;37741;49.748;8.490;2024-02-26T06:27:47;7.00;87.50
51661;DHT22;37741;49.748;8.490;2024-02-26T06:30:18;7.00;87.50
51661;DHT22;37741;49.748;8.490;2024-02-26T06:32:44;7.00;87.50
51661;DHT22;37741;49.748;8.490;2024-02-26T06:35:16;7.00;87.50
51661;DHT22;37741;49.748;8.490;2024-02-26T06:37:52;7.00;87.50
51661;DHT22;37741;49.748;8.490;2024-02-26T06:40:37;7.00;87.60
51661;DHT22;37741;49.748;8.490;2024-02-26T06:43:14;7.00;87.60
51661;DHT22;37741;49.748;8.490;2024-02-26T06:45:40;7.00;87.60
51661;DHT22;37741;49.748;8.490;2024-02-26T06:48:06;7.00;87.60
51661;DHT22;37741;49.748;8.490;2024-02-26T06:50:32;7.00;87.70
51661;DHT22;37741;49.748;8.490;2024-02-26T06:53:01;7.00;87.80
51661;DHT22;37741;49.748;8.490;2024-02-26T06:55:26;7.00;87.80
51661;DHT22;37741;49.748;8.490;2024-02-26T06:57:52;7.00;87.80
51661;DHT22;37741;49.748;8.490;2024-02-26T07:00:18;7.00;87.80
51661;DHT22;37741;49.748;8.490;2024-02-26T07:02:44;7.00;87.70
51661;DHT22;37741;49.748;8.490;2024-02-26T07:05:10;7.10;87.80
51661;DHT22;37741;49.748;8.490;2024-02-26T07:07:36;7.00;87.70
51661;DHT22;37741;49.748;8.490;2024-02-26T07:10:02;7.00;87.70
51661;DHT22;37741;49.748;8.490;2024-02-26T07:12:30;7.00;87.70
51661;DHT22;37741;49.748;8.490;2024-02-26T07:14:55;7.00;87.80
51661;DHT22;37741;49.748;8.490;2024-02-26T07:17:21;7.00;87.80
51661;DHT22;37741;49.748;8.490;2024-02-26T07:19:47;7.00;87.80
51661;DHT22;37741;49.748;8.490;2024-02-26T07:22:13;7.00;87.70
51661;DHT22;37741;49.748;8.490;2024-02-26T07:24:39;7.00;87.70
51661;DHT22;37741;49.748;8.490;2024-02-26T07:27:05;7.00;87.70
51661;DHT22;37741;49.748;8.490;2024-02-26T07:29:31;7.00;87.70
51661;DHT22;37741;49.748;8.490;2024-02-26T07:32:02;7.00;87.70
51661;DHT22;37741;49.748;8.490;2024-02-26T07:34:28;7.00;87.70
51661;DHT22;37741;49.748;8.490;2024-02-26T07:36:55;7.00;87.70
51661;DHT22;37741;49.748;8.490;2024-02-26T07:39:22;7.00;87.70
51661;DHT22;37741;49.748;8.490;2024-02-26T07:41:48;7.00;87.70
51661;DHT22;37741;49.748;8.490;2024-02-26T07:44:17;7.00;87.60
51661;DHT22;37741;49.748;8.490;2024-02-26T07:46:42;7.00;87.60
51661;DHT22;37741;49.748;8.490;2024-02-26T07:49:08;7.00;87.60
51661;DHT22;37741;49.748;8.490;2024-02-26T07:51:34;7.00;87.60
51661;DHT22;37741;49.748;8.490;2024-02-26T07:54:00;7.00;87.70
51661;DHT22;37741;49.748;8.490;2024-02-26T07:56:26;7.00;87.60
51661;DHT22;37741;49.748;8.490;2024-02-26T07:58:52;7.00;88.20
51661;DHT22;37741;49.748;8.490;2024-02-26T08:01:17;7.00;88.00
51661;DHT22;37741;49.748;8.490;2024-02-26T08:03:43;7.00;87.80
51661;DHT22;37741;49.748;8.490;2024-02-26T08:06:09;7.00;87.90
51661;DHT22;37741;49.748;8.490;2024-02-26T08:08:34;7.10;88.30
51661;DHT22;37741;49.748;8.490;2024-02-26T08:11:00;7.10;89.10
51661;DHT22;37741;49.748;8.490;2024-02-26T08:13:26;7.10;88.80
51661;DHT22;37741;49.748;8.490;2024-02-26T08:15:52;7.10;88.30
51661;DHT22;37741;49.748;8.490;2024-02-26T08:18:21;7.00;88.10
51661;DHT22;37741;49.748;8.490;2024-02-26T08:20:47;7.10;88.20
51661;DHT22;37741;49.748;8.490;2024-02-26T08:23:14;7.10;88.40
51661;DHT22;37741;49.748;8.490;2024-02-26T08:25:40;7.10;88.20
51661;DHT22;37741;49.748;8.490;2024-02-26T08:28:06;7.10;88.00
51661;DHT22;37741;49.748;8.490;2024-02-26T08:30:31;7.10;87.80
51661;DHT22;37741;49.748;8.490;2024-02-26T08:32:57;7.10;87.70
51661;DHT22;37741;49.748;8.490;2024-02-26T08:35:22;7.10;87.80
51661;DHT22;37741;49.748;8.490;2024-02-26T08:37:48;7.10;87.80
51661;DHT22;37741;49.748;8.490;2024-02-26T08:40:17;7.10;87.90
51661;DHT22;37741;49.748;8.490;2024-02-26T08:42:43;7.10;87.80
51661;DHT22;37741;49.748;8.490;2024-02-26T08:45:09;7.10;87.60
51661;DHT22;37741;49.748;8.490;2024-02-26T08:47:37;7.10;87.80
51661;DHT22;37741;49.748;8.490;2024-02-26T08:50:04;7.20;87.70
51661;DHT22;37741;49.748;8.490;2024-02-26T08:52:30;7.20;87.70
51661;DHT22;37741;49.748;8.490;2024-02-26T08:54:56;7.10;87.50
51661;DHT22;37741;49.748;8.490;2024-02-26T08:57:22;7.20;87.50
51661;DHT22;37741;49.748;8.490;2024-02-26T08:59:48;7.20;88.10
51661;DHT22;37741;49.748;8.490;2024-02-26T09:02:14;7.20;88.30
51661;DHT22;37741;49.748;8.490;2024-02-26T09:04:39;7.20;88.00
51661;DHT22;37741;49.748;8.490;2024-02-26T09:07:05;7.20;88.30
51661;DHT22;37741;49.748;8.490;2024-02-26T09:09:31;7.30;88.90
51661;DHT22;37741;49.748;8.490;2024-02-26T09:11:57;7.30;89.00
51661;DHT22;37741;49.748;8.490;2024-02-26T09:14:23;7.30;89.30
51661;DHT22;37741;49.748;8.490;2024-02-26T09:16:49;7.30;88.80
51661;DHT22;37741;49.748;8.490;2024-02-26T09:19:15;7.40;89.10
51661;DHT22;37741;49.748;8.490;2024-02-26T09:21:44;7.30;88.40
51661;DHT22;37741;49.748;8.490;2024-02-26T09:24:13;7.30;88.40
51661;DHT22;37741;49.748;8.490;2024-02-26T09:26:40;7.30;88.90
51661;DHT22;37741;49.748;8.490;2024-02-26T09:29:06;7.30;88.80
51661;DHT22;37741;49.748;8.490;2024-02-26T09:31:33;7.40;88.80
51661;DHT22;37741;49.748;8.490;2024-02-26T09:33:59;7.40;88.70
51661;DHT22;37741;49.748;8.490;2024-02-26T09:36:25;7.40;89.10
51661;DHT22;37741;49.748;8.490;2024-02-26T09:38:51;7.40;89.20
51661;DHT22;37741;49.748;8.490;2024-02-26T09:41:17;7.40;89.10
51661;DHT22;37741;49.748;8.490;2024-02-26T09:43:44;7.40;89.00
51661;DHT22;37741;49.748;8.490;2024-02-26T09:46:11;7.50;89.10
51661;DHT22;37741;49.748;8.490;2024-02-26T09:48:37;7.50;88.90
51661;DHT22;37741;49.748;8.490;2024-02-26T09:51:03;7.50;88.70
51661;DHT22;37741;49.748;8.490;2024-02-26T09:53:30;7.50;88.70
51661;DHT22;37741;49.748;8.490;2024-02-26T09:56:00;7.50;88.90
51661;DHT22;37741;49.748;8.490;2024-02-26T09:58:28;7.50;89.10
51661;DHT22;37741;49.748;8.490;2024-02-26T10:00:56;7.60;89.10
51661;DHT22;37741;49.748;8.490;2024-02-26T10:03:30;7.60;89.10
51661;DHT22;37741;49.748;8.490;2024-02-26T10:06:00;7.60;89.30
51661;DHT22;37741;49.748;8.490;2024-02-26T10:08:28;7.60;89.40
51661;DHT22;37741;49.748;8.490;2024-02-26T10:11:01;7.60;89.30
51661;DHT22;37741;49.748;8.490;2024-02-26T10:13:26;7.60;89.50
51661;DHT22;37741;49.748;8.490;2024-02-26T10:15:52;7.70;89.70
51661;DHT22;37741;49.748;8.490;2024-02-26T10:18:18;7.60;90.00
51661;DHT22;37741;49.748;8.490;2024-02-26T10:21:05;7.70;90.10
51661;DHT22;37741;49.748;8.490;2024-02-26T10:23:30;7.70;90.10
51661;DHT22;37741;49.748;8.490;2024-02-26T10:25:56;7.70;90.20
51661;DHT22;37741;49.748;8.490;2024-02-26T10:28:25;7.70;90.30
51661;DHT22;37741;49.748;8.490;2024-02-26T10:30:52;7.80;90.60
51661;DHT22;37741;49.748;8.490;2024-02-26T10:33:18;7.80;90.50
51661;DHT22;37741;49.748;8.490;2024-02-26T10:35:48;7.80;90.50
51661;DHT22;37741;49.748;8.490;2024-02-26T10:38:13;7.80;90.40
51661;DHT22;37741;49.748;8.490;2024-02-26T10:40:42;7.80;90.40
51661;DHT22;37741;49.748;8.490;2024-02-26T10:43:08;7.80;90.40
51661;DHT22;37741;49.748;8.490;2024-02-26T10:45:34;7.80;90.40
51661;DHT22;37741;49.748;8.490;2024-02-26T10:48:03;7.90;90.40
51661;DHT22;37741;49.748;8.490;2024-02-26T10:50:29;7.80;90.40
51661;DHT22;37741;49.748;8.490;2024-02-26T10:52:55;7.90;90.40
51661;DHT22;37741;49.748;8.490;2024-02-26T10:55:22;7.90;90.50
51661;DHT22;37741;49.748;8.490;2024-02-26T10:57:52;7.90;90.50
51661;DHT22;37741;49.748;8.490;2024-02-26T11:00:18;8.00;90.70
51661;DHT22;37741;49.748;8.490;2024-02-26T11:02:45;8.00;90.90
51661;DHT22;37741;49.748;8.490;2024-02-26T11:05:12;8.10;90.80
51661;DHT22;37741;49.748;8.490;2024-02-26T11:07:38;8.10;90.70
51661;DHT22;37741;49.748;8.490;2024-02-26T11:10:06;8.10;90.70
51661;DHT22;37741;49.748;8.490;2024-02-26T11:12:33;8.10;90.50
51661;DHT22;37741;49.748;8.490;2024-02-26T11:15:02;8.20;90.40
51661;DHT22;37741;49.748;8.490;2024-02-26T11:17:29;8.20;90.40
51661;DHT22;37741;49.748;8.490;2024-02-26T11:19:57;8.20;90.40
51661;DHT22;37741;49.748;8.490;2024-02-26T11:22:27;8.20;90.30
51661;DHT22;37741;49.748;8.490;2024-02-26T11:24:59;8.30;90.40
51661;DHT22;37741;49.748;8.490;2024-02-26T11:27:34;8.30;90.40
51661;DHT22;37741;49.748;8.490;2024-02-26T11:30:03;8.30;90.80
51661;DHT22;37741;49.748;8.490;2024-02-26T11:32:31;8.40;90.80
51661;DHT22;37741;49.748;8.490;2024-02-26T11:34:58;8.40;90.70
51661;DHT22;37741;49.748;8.490;2024-02-26T11:37:24;8.50;90.60
51661;DHT22;37741;49.748;8.490;2024-02-26T11:39:51;8.50;90.50
51661;DHT22;37741;49.748;8.490;2024-02-26T11:42:23;8.50;90.50
51661;DHT22;37741;49.748;8.490;2024-02-26T11:44:49;8.60;90.60
51661;DHT22;37741;49.748;8.490;2024-02-26T11:47:22;8.60;90.60
51661;DHT22;37741;49.748;8.490;2024-02-26T11:49:48;8.60;90.80
51661;DHT22;37741;49.748;8.490;2024-02-26T11:52:15;8.60;90.40
51661;DHT22;37741;49.748;8.490;2024-02-26T11:54:51;8.70;90.60
51661;DHT22;37741;49.748;8.490;2024-02-26T11:57:24;8.70;90.60
51661;DHT22;37741;49.748;8.490;2024-02-26T11:59:50;8.70;90.30
51661;DHT22;37741;49.748;8.490;2024-02-26T12:02:45;8.80;90.60
51661;DHT22;37741;49.748;8.490;2024-02-26T12:05:22;8.80;90.40
51661;DHT22;37741;49.748;8.490;2024-02-26T12:08:00;8.90;90.70
51661;DHT22;37741;49.748;8.490;2024-02-26T12:10:27;8.90;90.30
51661;DHT22;37741;49.748;8.490;2024-02-26T12:15:23;9.00;90.10
51661;DHT22;37741;49.748;8.490;2024-02-26T12:17:49;9.00;89.80
51661;DHT22;37741;49.748;8.490;2024-02-26T12:20:16;9.00;89.60
51661;DHT22;37741;49.748;8.490;2024-02-26T12:22:45;9.10;89.90
51661;DHT22;37741;49.748;8.490;2024-02-26T12:25:13;9.10;89.80
51661;DHT22;37741;49.748;8.490;2024-02-26T12:27:39;9.10;89.60
51661;DHT22;37741;49.748;8.490;2024-02-26T12:30:05;9.20;89.50
51661;DHT22;37741;49.748;8.490;2024-02-26T12:32:32;9.20;89.20
51661;DHT22;37741;49.748;8.490;2024-02-26T12:34:58;9.20;89.20
51661;DHT22;37741;49.748;8.490;2024-02-26T12:37:26;9.20;89.10
51661;DHT22;37741;49.748;8.490;2024-02-26T12:39:52;9.30;89.30
51661;DHT22;37741;49.748;8.490;2024-02-26T12:42:18;9.30;89.10
51661;DHT22;37741;49.748;8.490;2024-02-26T12:44:46;9.30;88.90
51661;DHT22;37741;49.748;8.490;2024-02-26T12:47:11;9.30;88.70
51661;DHT22;37741;49.748;8.490;2024-02-26T12:49:42;9.30;88.80
51661;DHT22;37741;49.748;8.490;2024-02-26T12:52:10;9.40;88.80
51661;DHT22;37741;49.748;8.490;2024-02-26T12:54:36;9.40;88.60
51661;DHT22;37741;49.748;8.490;2024-02-26T12:57:05;9.40;88.50
51661;DHT22;37741;49.748;8.490;2024-02-26T12:59:32;9.40;88.30
51661;DHT22;37741;49.748;8.490;2024-02-26T13:02:00;9.50;88.30
51661;DHT22;37741;49.748;8.490;2024-02-26T13:04:29;9.50;88.20
51661;DHT22;37741;49.748;8.490;2024-02-26T13:06:55;9.50;88.10
51661;DHT22;37741;49.748;8.490;2024-02-26T13:09:21;9.60;88.10
51661;DHT22;37741;49.748;8.490;2024-02-26T13:11:53;9.50;87.90
51661;DHT22;37741;49.748;8.490;2024-02-26T13:14:22;9.60;88.00
51661;DHT22;37741;49.748;8.490;2024-02-26T13:17:00;9.60;87.80
51661;DHT22;37741;49.748;8.490;2024-02-26T13:19:26;9.70;87.70
51661;DHT22;37741;49.748;8.490;2024-02-26T13:21:55;9.70;88.00
51661;DHT22;37741;49.748;8.490;2024-02-26T13:24:21;9.80;87.60
51661;DHT22;37741;49.748;8.490;2024-02-26T13:26:57;9.80;87.30
51661;DHT22;37741;49.748;8.490;2024-02-26T13:29:23;9.90;87.20
51661;DHT22;37741;49.748;8.490;2024-02-26T13:31:55;9.80;86.90
51661;DHT22;37741;49.748;8.490;2024-02-26T13:34:23;9.90;86.80
51661;DHT22;37741;49.748;8.490;2024-02-26T13:36:50;9.90;86.70
51661;DHT22;37741;49.748;8.490;2024-02-26T13:39:27;9.90;86.60
51661;DHT22;37741;49.748;8.490;2024-02-26T13:41:53;9.90;86.50
51661;DHT22;37741;49.748;8.490;2024-02-26T13:44:23;10.00;86.40
51661;DHT22;37741;49.748;8.490;2024-02-26T13:46:49;10.00;86.40
51661;DHT22;37741;49.748;8.490;2024-02-26T13:49:15;10.00;86.30
51661;DHT22;37741;49.748;8.490;2024-02-26T13:51:41;10.00;86.30
51661;DHT22;37741;49.748;8.490;2024-02-26T13:54:07;10.00;86.10
51661;DHT22;37741;49.748;8.490;2024-02-26T13:56:33;10.00;85.90
51661;DHT22;37741;49.748;8.490;2024-02-26T13:58:59;10.00;86.00
51661;DHT22;37741;49.748;8.490;2024-02-26T14:01:25;10.10;85.80
51661;DHT22;37741;49.748;8.490;2024-02-26T14:03:51;10.10;86.00
51661;DHT22;37741;49.748;8.490;2024-02-26T14:06:16;10.10;85.70
51661;DHT22;37741;49.748;8.490;2024-02-26T14:08:42;10.10;85.70
51661;DHT22;37741;49.748;8.490;2024-02-26T14:11:08;10.10;85.70
51661;DHT22;37741;49.748;8.490;2024-02-26T14:13:34;10.10;85.70
51661;DHT22;37741;49.748;8.490;2024-02-26T14:16:00;10.10;85.60
51661;DHT22;37741;49.748;8.490;2024-02-26T14:18:26;10.10;85.60
51661;DHT22;37741;49.748;8.490;2024-02-26T14:20:53;10.20;85.50
51661;DHT22;37741;49.748;8.490;2024-02-26T14:23:18;10.20;85.40
51661;DHT22;37741;49.748;8.490;2024-02-26T14:25:44;10.20;85.20
51661;DHT22;37741;49.748;8.490;2024-02-26T14:28:10;10.30;85.20
51661;DHT22;37741;49.748;8.490;2024-02-26T14:30:35;10.20;85.40
51661;DHT22;37741;49.748;8.490;2024-02-26T14:33:01;10.20;85.10
51661;DHT22;37741;49.748;8.490;2024-02-26T14:35:27;10.30;84.90
51661;DHT22;37741;49.748;8.490;2024-02-26T14:37:52;10.30;85.50
51661;DHT22;37741;49.748;8.490;2024-02-26T14:40:19;10.30;85.20
51661;DHT22;37741;49.748;8.490;2024-02-26T14:42:45;10.30;85.10
51661;DHT22;37741;49.748;8.490;2024-02-26T14:45:11;10.30;84.90
51661;DHT22;37741;49.748;8.490;2024-02-26T14:47:37;10.30;85.20
51661;DHT22;37741;49.748;8.490;2024-02-26T14:50:03;10.40;85.30
51661;DHT22;37741;49.748;8.490;2024-02-26T14:52:29;10.30;85.00
51661;DHT22;37741;49.748;8.490;2024-02-26T14:54:55;10.40;85.00
51661;DHT22;37741;49.748;8.490;2024-02-26T14:57:21;10.40;84.70
51661;DHT22;37741;49.748;8.490;2024-02-26T14:59:46;10.40;84.70
51661;DHT22;37741;49.748;8.490;2024-02-26T15:02:13;10.50;84.70
51661;DHT22;37741;49.748;8.490;2024-02-26T15:04:39;10.50;84.40
51661;DHT22;37741;49.748;8.490;2024-02-26T15:07:05;10.50;84.30
51661;DHT22;37741;49.748;8.490;2024-02-26T15:09:31;10.50;84.40
51661;DHT22;37741;49.748;8.490;2024-02-26T15:11:56;10.60;84.50
51661;DHT22;37741;49.748;8.490;2024-02-26T15:14:23;10.60;84.30
51661;DHT22;37741;49.748;8.490;2024-02-26T15:16:50;10.60;84.40
51661;DHT22;37741;49.748;8.490;2024-02-26T15:19:16;10.60;84.40
51661;DHT22;37741;49.748;8.490;2024-02-26T15:21:46;10.60;84.40
51661;DHT22;37741;49.748;8.490;2024-02-26T15:24:12;10.60;84.40
51661;DHT22;37741;49.748;8.490;2024-02-26T15:26:38;10.60;84.50
51661;DHT22;37741;49.748;8.490;2024-02-26T15:29:06;10.60;84.10
51661;DHT22;37741;49.748;8.490;2024-02-26T15:31:31;10.60;84.00
51661;DHT22;37741;49.748;8.490;2024-02-26T15:33:57;10.70;84.00
51661;DHT22;37741;49.748;8.490;2024-02-26T15:36:23;10.70;83.90
51661;DHT22;37741;49.748;8.490;2024-02-26T15:38:48;10.70;83.90
51661;DHT22;37741;49.748;8.490;2024-02-26T15:41:15;10.70;83.80
51661;DHT22;37741;49.748;8.490;2024-02-26T15:43:40;10.70;83.60
51661;DHT22;37741;49.748;8.490;2024-02-26T15:46:06;10.70;83.50
51661;DHT22;37741;49.748;8.490;2024-02-26T15:48:32;10.70;83.50